sensor_id;sensor_type;location;lat;lon;timestamp;P1;durP1;ratioP1;P2;durP2;ratioP2
17595;SDS011;8916;47.086;15.920;2022-10-16T00:01:56;108.32;;;56.58;;
17595;SDS011;8916;47.086;15.920;2022-10-16T00:04:26;122.28;;;62.50;;
17595;SDS011;8916;47.086;15.920;2022-10-16T00:06:56;110.35;;;59.90;;
17595;SDS011;8916;47.086;15.920;2022-10-16T00:09:25;105.63;;;57.67;;
17595;SDS011;8916;47.086;15.920;2022-10-16T00:11:54;107.30;;;57.38;;
17595;SDS011;8916;47.086;15.920;2022-10-16T00:14:25;107.95;;;55.50;;
17595;SDS011;8916;47.086;15.920;2022-10-16T00:16:54;94.82;;;54.85;;
17595;SDS011;8916;47.086;15.920;2022-10-16T00:19:23;99.50;;;55.72;;
17595;SDS011;8916;47.086;15.920;2022-10-16T00:21:52;100.43;;;55.63;;
17595;SDS011;8916;47.086;15.920;2022-10-16T00:24:21;96.15;;;54.47;;
17595;SDS011;8916;47.086;15.920;2022-10-16T00:26:50;96.40;;;55.50;;
17595;SDS011;8916;47.086;15.920;2022-10-16T00:29:20;103.75;;;56.88;;
17595;SDS011;8916;47.086;15.920;2022-10-16T00:31:50;111.80;;;56.25;;
17595;SDS011;8916;47.086;15.920;2022-10-16T00:34:19;104.03;;;55.60;;
17595;SDS011;8916;47.086;15.920;2022-10-16T00:36:48;112.32;;;57.20;;
17595;SDS011;8916;47.086;15.920;2022-10-16T00:39:18;103.45;;;59.10;;
17595;SDS011;8916;47.086;15.920;2022-10-16T00:41:47;105.47;;;59.00;;
17595;SDS011;8916;47.086;15.920;2022-10-16T00:47:19;109.57;;;58.08;;
17595;SDS011;8916;47.086;15.920;2022-10-16T00:49:56;120.80;;;60.67;;
17595;SDS011;8916;47.086;15.920;2022-10-16T00:52:31;117.57;;;59.53;;
17595;SDS011;8916;47.086;15.920;2022-10-16T00:55:01;109.82;;;57.85;;
17595;SDS011;8916;47.086;15.920;2022-10-16T00:57:31;123.50;;;63.53;;
17595;SDS011;8916;47.086;15.920;2022-10-16T01:00:01;113.45;;;62.83;;
17595;SDS011;8916;47.086;15.920;2022-10-16T01:02:34;115.75;;;61.13;;
17595;SDS011;8916;47.086;15.920;2022-10-16T01:05:03;116.20;;;65.10;;
17595;SDS011;8916;47.086;15.920;2022-10-16T01:07:36;131.30;;;67.47;;
17595;SDS011;8916;47.086;15.920;2022-10-16T01:10:17;118.43;;;64.30;;
17595;SDS011;8916;47.086;15.920;2022-10-16T01:12:56;133.30;;;67.45;;
17595;SDS011;8916;47.086;15.920;2022-10-16T01:15:33;133.43;;;71.47;;
17595;SDS011;8916;47.086;15.920;2022-10-16T01:18:11;131.27;;;68.80;;
17595;SDS011;8916;47.086;15.920;2022-10-16T01:20:45;136.27;;;69.13;;
17595;SDS011;8916;47.086;15.920;2022-10-16T01:23:26;126.57;;;67.40;;
17595;SDS011;8916;47.086;15.920;2022-10-16T01:29:07;128.27;;;66.05;;
17595;SDS011;8916;47.086;15.920;2022-10-16T01:31:44;128.27;;;67.70;;
17595;SDS011;8916;47.086;15.920;2022-10-16T01:34:20;136.60;;;69.95;;
17595;SDS011;8916;47.086;15.920;2022-10-16T01:36:58;121.32;;;66.38;;
17595;SDS011;8916;47.086;15.920;2022-10-16T01:39:33;122.80;;;64.30;;
17595;SDS011;8916;47.086;15.920;2022-10-16T01:42:07;106.68;;;59.08;;
17595;SDS011;8916;47.086;15.920;2022-10-16T01:44:45;103.18;;;54.15;;
17595;SDS011;8916;47.086;15.920;2022-10-16T01:47:16;90.72;;;54.33;;
17595;SDS011;8916;47.086;15.920;2022-10-16T01:49:47;109.07;;;58.15;;
17595;SDS011;8916;47.086;15.920;2022-10-16T01:52:19;99.32;;;56.53;;
17595;SDS011;8916;47.086;15.920;2022-10-16T01:54:53;113.07;;;62.55;;
17595;SDS011;8916;47.086;15.920;2022-10-16T01:57:25;102.13;;;56.40;;
17595;SDS011;8916;47.086;15.920;2022-10-16T01:59:58;92.88;;;56.22;;
17595;SDS011;8916;47.086;15.920;2022-10-16T02:02:38;106.13;;;58.50;;
17595;SDS011;8916;47.086;15.920;2022-10-16T02:05:13;97.60;;;54.53;;
17595;SDS011;8916;47.086;15.920;2022-10-16T02:07:49;93.60;;;52.15;;
17595;SDS011;8916;47.086;15.920;2022-10-16T02:10:18;90.38;;;52.30;;
17595;SDS011;8916;47.086;15.920;2022-10-16T02:12:50;88.10;;;51.55;;
17595;SDS011;8916;47.086;15.920;2022-10-16T02:15:27;91.18;;;53.58;;
17595;SDS011;8916;47.086;15.920;2022-10-16T02:17:56;94.43;;;54.03;;
17595;SDS011;8916;47.086;15.920;2022-10-16T02:20:27;106.13;;;55.08;;
17595;SDS011;8916;47.086;15.920;2022-10-16T02:22:59;94.30;;;53.35;;
17595;SDS011;8916;47.086;15.920;2022-10-16T02:25:32;85.38;;;51.85;;
17595;SDS011;8916;47.086;15.920;2022-10-16T02:28:06;101.95;;;56.25;;
17595;SDS011;8916;47.086;15.920;2022-10-16T02:30:46;93.63;;;53.40;;
17595;SDS011;8916;47.086;15.920;2022-10-16T02:33:23;81.13;;;51.33;;
17595;SDS011;8916;47.086;15.920;2022-10-16T02:35:53;99.75;;;55.13;;
17595;SDS011;8916;47.086;15.920;2022-10-16T02:38:24;92.85;;;52.20;;
17595;SDS011;8916;47.086;15.920;2022-10-16T02:40:54;90.38;;;53.17;;
17595;SDS011;8916;47.086;15.920;2022-10-16T02:43:24;94.28;;;51.25;;
17595;SDS011;8916;47.086;15.920;2022-10-16T02:45:55;90.65;;;53.70;;
17595;SDS011;8916;47.086;15.920;2022-10-16T02:48:24;100.65;;;55.10;;
17595;SDS011;8916;47.086;15.920;2022-10-16T02:50:53;113.55;;;61.45;;
17595;SDS011;8916;47.086;15.920;2022-10-16T02:53:24;136.85;;;66.03;;
17595;SDS011;8916;47.086;15.920;2022-10-16T02:55:53;127.18;;;63.92;;
17595;SDS011;8916;47.086;15.920;2022-10-16T02:58:22;126.47;;;63.55;;
17595;SDS011;8916;47.086;15.920;2022-10-16T03:00:51;116.70;;;63.15;;
17595;SDS011;8916;47.086;15.920;2022-10-16T03:03:22;105.60;;;60.63;;
17595;SDS011;8916;47.086;15.920;2022-10-16T03:05:51;92.82;;;55.63;;
17595;SDS011;8916;47.086;15.920;2022-10-16T03:08:20;95.65;;;54.80;;
17595;SDS011;8916;47.086;15.920;2022-10-16T03:10:52;109.82;;;57.13;;
17595;SDS011;8916;47.086;15.920;2022-10-16T03:13:21;87.05;;;51.38;;
17595;SDS011;8916;47.086;15.920;2022-10-16T03:15:50;93.03;;;52.67;;
17595;SDS011;8916;47.086;15.920;2022-10-16T03:18:19;95.93;;;53.90;;
17595;SDS011;8916;47.086;15.920;2022-10-16T03:20:50;94.30;;;53.78;;
17595;SDS011;8916;47.086;15.920;2022-10-16T03:23:19;86.80;;;53.15;;
17595;SDS011;8916;47.086;15.920;2022-10-16T03:25:48;91.03;;;51.95;;
17595;SDS011;8916;47.086;15.920;2022-10-16T03:28:17;106.82;;;57.53;;
17595;SDS011;8916;47.086;15.920;2022-10-16T03:30:46;106.03;;;58.58;;
17595;SDS011;8916;47.086;15.920;2022-10-16T03:33:15;108.65;;;61.42;;
17595;SDS011;8916;47.086;15.920;2022-10-16T03:35:51;94.47;;;57.33;;
17595;SDS011;8916;47.086;15.920;2022-10-16T03:38:21;100.35;;;57.38;;
17595;SDS011;8916;47.086;15.920;2022-10-16T03:40:50;97.53;;;55.17;;
17595;SDS011;8916;47.086;15.920;2022-10-16T03:43:20;90.97;;;54.15;;
17595;SDS011;8916;47.086;15.920;2022-10-16T03:45:49;89.05;;;51.45;;
17595;SDS011;8916;47.086;15.920;2022-10-16T03:48:19;86.93;;;50.85;;
17595;SDS011;8916;47.086;15.920;2022-10-16T03:50:48;94.85;;;51.95;;
17595;SDS011;8916;47.086;15.920;2022-10-16T03:53:20;89.05;;;51.97;;
17595;SDS011;8916;47.086;15.920;2022-10-16T03:55:49;89.95;;;51.35;;
17595;SDS011;8916;47.086;15.920;2022-10-16T03:58:18;99.00;;;53.25;;
17595;SDS011;8916;47.086;15.920;2022-10-16T04:00:48;84.13;;;51.42;;
17595;SDS011;8916;47.086;15.920;2022-10-16T04:03:17;90.70;;;51.58;;
17595;SDS011;8916;47.086;15.920;2022-10-16T04:05:46;97.15;;;53.47;;
17595;SDS011;8916;47.086;15.920;2022-10-16T04:08:15;89.28;;;51.65;;
17595;SDS011;8916;47.086;15.920;2022-10-16T04:10:47;86.13;;;51.15;;
17595;SDS011;8916;47.086;15.920;2022-10-16T04:13:17;93.50;;;51.08;;
17595;SDS011;8916;47.086;15.920;2022-10-16T04:15:46;89.20;;;50.17;;
17595;SDS011;8916;47.086;15.920;2022-10-16T04:18:15;89.28;;;50.38;;
17595;SDS011;8916;47.086;15.920;2022-10-16T04:20:44;78.97;;;45.63;;
17595;SDS011;8916;47.086;15.920;2022-10-16T04:23:13;106.45;;;56.53;;
17595;SDS011;8916;47.086;15.920;2022-10-16T04:25:42;120.93;;;63.85;;
17595;SDS011;8916;47.086;15.920;2022-10-16T04:28:13;127.88;;;65.90;;
17595;SDS011;8916;47.086;15.920;2022-10-16T04:30:42;117.15;;;62.95;;
17595;SDS011;8916;47.086;15.920;2022-10-16T04:33:11;108.90;;;57.35;;
17595;SDS011;8916;47.086;15.920;2022-10-16T04:35:41;106.93;;;55.08;;
17595;SDS011;8916;47.086;15.920;2022-10-16T04:38:10;98.95;;;53.70;;
17595;SDS011;8916;47.086;15.920;2022-10-16T04:40:39;84.18;;;50.65;;
17595;SDS011;8916;47.086;15.920;2022-10-16T04:43:10;86.63;;;49.05;;
17595;SDS011;8916;47.086;15.920;2022-10-16T04:45:41;75.25;;;46.55;;
17595;SDS011;8916;47.086;15.920;2022-10-16T04:48:10;79.38;;;47.13;;
17595;SDS011;8916;47.086;15.920;2022-10-16T04:50:39;98.78;;;51.13;;
17595;SDS011;8916;47.086;15.920;2022-10-16T04:53:09;86.60;;;49.08;;
17595;SDS011;8916;47.086;15.920;2022-10-16T04:55:38;90.80;;;51.40;;
17595;SDS011;8916;47.086;15.920;2022-10-16T04:58:08;90.30;;;52.13;;
17595;SDS011;8916;47.086;15.920;2022-10-16T05:00:37;91.72;;;51.83;;
17595;SDS011;8916;47.086;15.920;2022-10-16T05:03:08;83.22;;;50.75;;
17595;SDS011;8916;47.086;15.920;2022-10-16T05:05:41;82.35;;;50.03;;
17595;SDS011;8916;47.086;15.920;2022-10-16T05:08:12;84.30;;;49.80;;
17595;SDS011;8916;47.086;15.920;2022-10-16T05:10:43;88.50;;;50.80;;
17595;SDS011;8916;47.086;15.920;2022-10-16T05:13:13;92.18;;;53.30;;
17595;SDS011;8916;47.086;15.920;2022-10-16T05:15:42;84.38;;;52.42;;
17595;SDS011;8916;47.086;15.920;2022-10-16T05:18:17;89.28;;;47.85;;
17595;SDS011;8916;47.086;15.920;2022-10-16T05:20:46;90.85;;;49.85;;
17595;SDS011;8916;47.086;15.920;2022-10-16T05:23:16;83.85;;;49.03;;
17595;SDS011;8916;47.086;15.920;2022-10-16T05:25:51;84.85;;;47.30;;
17595;SDS011;8916;47.086;15.920;2022-10-16T05:30:51;90.65;;;52.22;;
17595;SDS011;8916;47.086;15.920;2022-10-16T05:33:23;82.15;;;49.50;;
17595;SDS011;8916;47.086;15.920;2022-10-16T05:35:54;80.45;;;51.72;;
17595;SDS011;8916;47.086;15.920;2022-10-16T05:38:23;95.80;;;52.78;;
17595;SDS011;8916;47.086;15.920;2022-10-16T05:40:53;91.70;;;54.33;;
17595;SDS011;8916;47.086;15.920;2022-10-16T05:43:23;95.82;;;53.92;;
17595;SDS011;8916;47.086;15.920;2022-10-16T05:45:55;109.68;;;55.70;;
17595;SDS011;8916;47.086;15.920;2022-10-16T05:48:27;93.13;;;52.15;;
17595;SDS011;8916;47.086;15.920;2022-10-16T05:50:57;82.90;;;49.55;;
17595;SDS011;8916;47.086;15.920;2022-10-16T05:53:28;80.45;;;47.78;;
17595;SDS011;8916;47.086;15.920;2022-10-16T05:55:58;75.88;;;42.63;;
17595;SDS011;8916;47.086;15.920;2022-10-16T05:58:28;92.30;;;48.80;;
17595;SDS011;8916;47.086;15.920;2022-10-16T06:01:00;84.50;;;48.03;;
17595;SDS011;8916;47.086;15.920;2022-10-16T06:03:33;83.80;;;47.00;;
17595;SDS011;8916;47.086;15.920;2022-10-16T06:06:07;79.57;;;46.72;;
17595;SDS011;8916;47.086;15.920;2022-10-16T06:08:38;83.97;;;46.50;;
17595;SDS011;8916;47.086;15.920;2022-10-16T06:11:09;82.30;;;48.00;;
17595;SDS011;8916;47.086;15.920;2022-10-16T06:13:40;79.30;;;46.72;;
17595;SDS011;8916;47.086;15.920;2022-10-16T06:16:10;86.30;;;47.80;;
17595;SDS011;8916;47.086;15.920;2022-10-16T06:18:41;78.63;;;47.47;;
17595;SDS011;8916;47.086;15.920;2022-10-16T06:21:11;91.95;;;51.38;;
17595;SDS011;8916;47.086;15.920;2022-10-16T06:23:44;105.40;;;54.00;;
17595;SDS011;8916;47.086;15.920;2022-10-16T06:26:14;93.97;;;51.95;;
17595;SDS011;8916;47.086;15.920;2022-10-16T06:28:46;100.75;;;54.53;;
17595;SDS011;8916;47.086;15.920;2022-10-16T06:31:16;95.45;;;52.53;;
17595;SDS011;8916;47.086;15.920;2022-10-16T06:33:49;97.10;;;54.72;;
17595;SDS011;8916;47.086;15.920;2022-10-16T06:36:19;96.20;;;53.08;;
17595;SDS011;8916;47.086;15.920;2022-10-16T06:38:49;101.57;;;52.22;;
17595;SDS011;8916;47.086;15.920;2022-10-16T06:41:19;92.45;;;53.58;;
17595;SDS011;8916;47.086;15.920;2022-10-16T06:43:50;101.85;;;57.45;;
17595;SDS011;8916;47.086;15.920;2022-10-16T06:46:21;98.65;;;54.10;;
17595;SDS011;8916;47.086;15.920;2022-10-16T06:48:53;98.78;;;54.17;;
17595;SDS011;8916;47.086;15.920;2022-10-16T06:51:23;102.72;;;54.70;;
17595;SDS011;8916;47.086;15.920;2022-10-16T06:53:54;92.32;;;54.25;;
17595;SDS011;8916;47.086;15.920;2022-10-16T06:56:30;97.90;;;55.42;;
17595;SDS011;8916;47.086;15.920;2022-10-16T06:59:00;101.45;;;54.80;;
17595;SDS011;8916;47.086;15.920;2022-10-16T07:01:30;90.93;;;52.40;;
17595;SDS011;8916;47.086;15.920;2022-10-16T07:04:01;98.25;;;56.08;;
17595;SDS011;8916;47.086;15.920;2022-10-16T07:06:31;96.43;;;54.90;;
17595;SDS011;8916;47.086;15.920;2022-10-16T07:09:03;94.30;;;53.00;;
17595;SDS011;8916;47.086;15.920;2022-10-16T07:11:36;95.88;;;54.65;;
17595;SDS011;8916;47.086;15.920;2022-10-16T07:14:09;88.85;;;50.78;;
17595;SDS011;8916;47.086;15.920;2022-10-16T07:16:45;84.15;;;51.47;;
17595;SDS011;8916;47.086;15.920;2022-10-16T07:19:17;88.03;;;50.70;;
17595;SDS011;8916;47.086;15.920;2022-10-16T07:21:46;84.03;;;49.85;;
17595;SDS011;8916;47.086;15.920;2022-10-16T07:24:16;89.00;;;53.03;;
17595;SDS011;8916;47.086;15.920;2022-10-16T07:26:47;92.45;;;51.00;;
17595;SDS011;8916;47.086;15.920;2022-10-16T07:29:19;87.07;;;49.75;;
17595;SDS011;8916;47.086;15.920;2022-10-16T07:31:50;81.68;;;48.60;;
17595;SDS011;8916;47.086;15.920;2022-10-16T07:34:20;87.85;;;48.28;;
17595;SDS011;8916;47.086;15.920;2022-10-16T07:36:50;79.63;;;46.70;;
17595;SDS011;8916;47.086;15.920;2022-10-16T07:39:19;75.30;;;45.60;;
17595;SDS011;8916;47.086;15.920;2022-10-16T07:41:49;82.65;;;47.30;;
17595;SDS011;8916;47.086;15.920;2022-10-16T07:44:18;72.10;;;44.10;;
17595;SDS011;8916;47.086;15.920;2022-10-16T07:46:47;74.82;;;44.85;;
17595;SDS011;8916;47.086;15.920;2022-10-16T07:49:17;77.10;;;46.00;;
17595;SDS011;8916;47.086;15.920;2022-10-16T07:51:47;79.05;;;42.08;;
17595;SDS011;8916;47.086;15.920;2022-10-16T07:54:17;69.53;;;42.72;;
17595;SDS011;8916;47.086;15.920;2022-10-16T07:56:47;73.03;;;42.35;;
17595;SDS011;8916;47.086;15.920;2022-10-16T07:59:16;68.15;;;41.60;;
17595;SDS011;8916;47.086;15.920;2022-10-16T08:01:48;69.18;;;42.78;;
17595;SDS011;8916;47.086;15.920;2022-10-16T08:04:17;67.90;;;42.13;;
17595;SDS011;8916;47.086;15.920;2022-10-16T08:06:48;65.68;;;42.35;;
17595;SDS011;8916;47.086;15.920;2022-10-16T08:09:18;74.70;;;41.33;;
17595;SDS011;8916;47.086;15.920;2022-10-16T08:11:47;67.20;;;39.80;;
17595;SDS011;8916;47.086;15.920;2022-10-16T08:14:18;67.18;;;40.30;;
17595;SDS011;8916;47.086;15.920;2022-10-16T08:16:47;66.22;;;40.83;;
17595;SDS011;8916;47.086;15.920;2022-10-16T08:19:16;67.75;;;41.17;;
17595;SDS011;8916;47.086;15.920;2022-10-16T08:21:54;67.40;;;41.13;;
17595;SDS011;8916;47.086;15.920;2022-10-16T08:24:31;66.82;;;42.00;;
17595;SDS011;8916;47.086;15.920;2022-10-16T08:27:03;62.60;;;41.05;;
17595;SDS011;8916;47.086;15.920;2022-10-16T08:29:32;62.42;;;39.65;;
17595;SDS011;8916;47.086;15.920;2022-10-16T08:32:03;60.95;;;40.20;;
17595;SDS011;8916;47.086;15.920;2022-10-16T08:37:17;70.82;;;39.67;;
17595;SDS011;8916;47.086;15.920;2022-10-16T08:39:46;65.07;;;40.10;;
17595;SDS011;8916;47.086;15.920;2022-10-16T08:42:17;59.72;;;37.92;;
17595;SDS011;8916;47.086;15.920;2022-10-16T08:48:00;61.22;;;38.08;;
17595;SDS011;8916;47.086;15.920;2022-10-16T08:50:44;63.20;;;39.25;;
17595;SDS011;8916;47.086;15.920;2022-10-16T08:53:16;55.50;;;37.38;;
17595;SDS011;8916;47.086;15.920;2022-10-16T08:55:52;55.58;;;36.45;;
17595;SDS011;8916;47.086;15.920;2022-10-16T08:58:26;53.53;;;37.55;;
17595;SDS011;8916;47.086;15.920;2022-10-16T09:00:58;57.63;;;37.65;;
17595;SDS011;8916;47.086;15.920;2022-10-16T09:03:41;57.47;;;38.10;;
17595;SDS011;8916;47.086;15.920;2022-10-16T09:06:43;53.83;;;35.95;;
17595;SDS011;8916;47.086;15.920;2022-10-16T09:09:27;51.33;;;33.92;;
17595;SDS011;8916;47.086;15.920;2022-10-16T09:12:17;55.40;;;34.78;;
17595;SDS011;8916;47.086;15.920;2022-10-16T09:14:57;50.95;;;34.58;;
17595;SDS011;8916;47.086;15.920;2022-10-16T09:17:40;53.75;;;35.42;;
17595;SDS011;8916;47.086;15.920;2022-10-16T09:20:28;52.75;;;34.22;;
17595;SDS011;8916;47.086;15.920;2022-10-16T09:23:15;59.70;;;34.85;;
17595;SDS011;8916;47.086;15.920;2022-10-16T09:25:49;47.88;;;32.72;;
17595;SDS011;8916;47.086;15.920;2022-10-16T09:28:19;51.90;;;33.08;;
17595;SDS011;8916;47.086;15.920;2022-10-16T09:30:49;44.95;;;32.78;;
17595;SDS011;8916;47.086;15.920;2022-10-16T09:33:21;52.25;;;33.03;;
17595;SDS011;8916;47.086;15.920;2022-10-16T09:35:58;44.05;;;31.85;;
17595;SDS011;8916;47.086;15.920;2022-10-16T09:38:28;58.17;;;34.15;;
17595;SDS011;8916;47.086;15.920;2022-10-16T09:41:02;47.58;;;33.30;;
17595;SDS011;8916;47.086;15.920;2022-10-16T09:43:45;47.20;;;32.05;;
17595;SDS011;8916;47.086;15.920;2022-10-16T09:49:18;46.65;;;32.83;;
17595;SDS011;8916;47.086;15.920;2022-10-16T09:51:51;95.85;;;52.67;;
17595;SDS011;8916;47.086;15.920;2022-10-16T09:54:31;48.72;;;32.17;;
17595;SDS011;8916;47.086;15.920;2022-10-16T09:57:05;47.67;;;32.50;;
17595;SDS011;8916;47.086;15.920;2022-10-16T09:59:44;47.92;;;31.45;;
17595;SDS011;8916;47.086;15.920;2022-10-16T10:02:16;46.22;;;31.52;;
17595;SDS011;8916;47.086;15.920;2022-10-16T10:04:48;42.92;;;29.75;;
17595;SDS011;8916;47.086;15.920;2022-10-16T10:07:24;55.25;;;35.75;;
17595;SDS011;8916;47.086;15.920;2022-10-16T10:09:56;86.95;;;47.38;;
17595;SDS011;8916;47.086;15.920;2022-10-16T10:12:27;61.55;;;39.88;;
17595;SDS011;8916;47.086;15.920;2022-10-16T10:15:03;38.50;;;28.45;;
17595;SDS011;8916;47.086;15.920;2022-10-16T10:17:44;41.80;;;27.13;;
17595;SDS011;8916;47.086;15.920;2022-10-16T10:20:21;38.75;;;27.00;;
17595;SDS011;8916;47.086;15.920;2022-10-16T10:22:54;43.22;;;29.58;;
17595;SDS011;8916;47.086;15.920;2022-10-16T10:25:38;43.20;;;30.27;;
17595;SDS011;8916;47.086;15.920;2022-10-16T10:31:20;44.08;;;28.63;;
17595;SDS011;8916;47.086;15.920;2022-10-16T10:33:57;43.80;;;28.52;;
17595;SDS011;8916;47.086;15.920;2022-10-16T10:36:40;42.00;;;29.38;;
17595;SDS011;8916;47.086;15.920;2022-10-16T10:39:12;37.78;;;27.55;;
17595;SDS011;8916;47.086;15.920;2022-10-16T10:41:58;42.75;;;27.48;;
17595;SDS011;8916;47.086;15.920;2022-10-16T10:44:42;45.13;;;27.92;;
17595;SDS011;8916;47.086;15.920;2022-10-16T10:47:42;38.90;;;27.63;;
17595;SDS011;8916;47.086;15.920;2022-10-16T10:50:25;37.42;;;26.55;;
17595;SDS011;8916;47.086;15.920;2022-10-16T10:53:09;41.08;;;27.42;;
17595;SDS011;8916;47.086;15.920;2022-10-16T10:55:54;38.92;;;27.02;;
17595;SDS011;8916;47.086;15.920;2022-10-16T10:58:42;42.13;;;26.70;;
17595;SDS011;8916;47.086;15.920;2022-10-16T11:01:39;37.85;;;27.05;;
17595;SDS011;8916;47.086;15.920;2022-10-16T11:04:33;43.35;;;28.33;;
17595;SDS011;8916;47.086;15.920;2022-10-16T11:07:16;53.80;;;29.55;;
17595;SDS011;8916;47.086;15.920;2022-10-16T11:09:53;42.97;;;29.80;;
17595;SDS011;8916;47.086;15.920;2022-10-16T11:12:27;45.20;;;31.45;;
17595;SDS011;8916;47.086;15.920;2022-10-16T11:15:03;45.00;;;30.23;;
17595;SDS011;8916;47.086;15.920;2022-10-16T11:17:44;40.40;;;29.27;;
17595;SDS011;8916;47.086;15.920;2022-10-16T11:20:20;40.92;;;27.95;;
17595;SDS011;8916;47.086;15.920;2022-10-16T11:22:54;41.70;;;28.40;;
17595;SDS011;8916;47.086;15.920;2022-10-16T11:25:29;50.65;;;30.25;;
17595;SDS011;8916;47.086;15.920;2022-10-16T11:28:02;43.65;;;28.13;;
17595;SDS011;8916;47.086;15.920;2022-10-16T11:30:39;39.28;;;28.45;;
17595;SDS011;8916;47.086;15.920;2022-10-16T11:33:22;40.45;;;26.60;;
17595;SDS011;8916;47.086;15.920;2022-10-16T11:36:00;48.28;;;29.05;;
17595;SDS011;8916;47.086;15.920;2022-10-16T11:38:42;40.10;;;28.35;;
17595;SDS011;8916;47.086;15.920;2022-10-16T11:41:24;40.25;;;27.55;;
17595;SDS011;8916;47.086;15.920;2022-10-16T11:44:09;38.58;;;28.00;;
17595;SDS011;8916;47.086;15.920;2022-10-16T11:46:50;37.25;;;27.95;;
17595;SDS011;8916;47.086;15.920;2022-10-16T11:49:50;48.10;;;29.55;;
17595;SDS011;8916;47.086;15.920;2022-10-16T11:52:28;42.90;;;27.65;;
17595;SDS011;8916;47.086;15.920;2022-10-16T11:55:12;37.45;;;27.38;;
17595;SDS011;8916;47.086;15.920;2022-10-16T11:57:45;37.80;;;26.50;;
17595;SDS011;8916;47.086;15.920;2022-10-16T12:00:22;35.70;;;26.98;;
17595;SDS011;8916;47.086;15.920;2022-10-16T12:02:58;39.38;;;26.88;;
17595;SDS011;8916;47.086;15.920;2022-10-16T12:05:41;38.38;;;26.73;;
17595;SDS011;8916;47.086;15.920;2022-10-16T12:08:26;38.78;;;30.33;;
17595;SDS011;8916;47.086;15.920;2022-10-16T12:11:05;38.67;;;27.02;;
17595;SDS011;8916;47.086;15.920;2022-10-16T12:13:40;37.42;;;27.42;;
17595;SDS011;8916;47.086;15.920;2022-10-16T12:16:20;37.75;;;27.63;;
17595;SDS011;8916;47.086;15.920;2022-10-16T12:19:03;34.33;;;25.58;;
17595;SDS011;8916;47.086;15.920;2022-10-16T12:21:42;32.55;;;23.95;;
17595;SDS011;8916;47.086;15.920;2022-10-16T12:24:27;31.10;;;22.90;;
17595;SDS011;8916;47.086;15.920;2022-10-16T12:27:02;32.17;;;24.70;;
17595;SDS011;8916;47.086;15.920;2022-10-16T12:29:35;30.05;;;24.17;;
17595;SDS011;8916;47.086;15.920;2022-10-16T12:32:20;32.38;;;23.92;;
17595;SDS011;8916;47.086;15.920;2022-10-16T12:35:17;29.13;;;23.08;;
17595;SDS011;8916;47.086;15.920;2022-10-16T12:37:52;32.55;;;24.25;;
17595;SDS011;8916;47.086;15.920;2022-10-16T12:40:24;31.50;;;24.27;;
17595;SDS011;8916;47.086;15.920;2022-10-16T12:42:57;33.15;;;25.45;;
17595;SDS011;8916;47.086;15.920;2022-10-16T12:45:28;35.22;;;25.67;;
17595;SDS011;8916;47.086;15.920;2022-10-16T12:48:00;34.78;;;25.42;;
17595;SDS011;8916;47.086;15.920;2022-10-16T12:50:34;35.92;;;24.58;;
17595;SDS011;8916;47.086;15.920;2022-10-16T12:53:17;32.83;;;24.77;;
17595;SDS011;8916;47.086;15.920;2022-10-16T12:55:52;36.80;;;26.48;;
17595;SDS011;8916;47.086;15.920;2022-10-16T12:58:39;33.05;;;24.15;;
17595;SDS011;8916;47.086;15.920;2022-10-16T13:01:39;30.50;;;25.00;;
17595;SDS011;8916;47.086;15.920;2022-10-16T13:04:22;34.25;;;26.20;;
17595;SDS011;8916;47.086;15.920;2022-10-16T13:07:16;31.65;;;25.50;;
17595;SDS011;8916;47.086;15.920;2022-10-16T13:10:04;33.33;;;24.13;;
17595;SDS011;8916;47.086;15.920;2022-10-16T13:12:54;33.45;;;24.10;;
17595;SDS011;8916;47.086;15.920;2022-10-16T13:15:41;32.45;;;24.40;;
17595;SDS011;8916;47.086;15.920;2022-10-16T13:21:07;27.15;;;23.20;;
17595;SDS011;8916;47.086;15.920;2022-10-16T13:23:55;30.20;;;23.20;;
17595;SDS011;8916;47.086;15.920;2022-10-16T13:26:35;28.85;;;23.60;;
17595;SDS011;8916;47.086;15.920;2022-10-16T13:29:13;29.23;;;22.45;;
17595;SDS011;8916;47.086;15.920;2022-10-16T13:31:43;27.90;;;23.08;;
17595;SDS011;8916;47.086;15.920;2022-10-16T13:34:14;25.45;;;21.33;;
17595;SDS011;8916;47.086;15.920;2022-10-16T13:36:47;29.65;;;21.75;;
17595;SDS011;8916;47.086;15.920;2022-10-16T13:39:21;27.25;;;22.85;;
17595;SDS011;8916;47.086;15.920;2022-10-16T13:42:02;27.65;;;21.75;;
17595;SDS011;8916;47.086;15.920;2022-10-16T13:44:36;29.27;;;23.10;;
17595;SDS011;8916;47.086;15.920;2022-10-16T13:47:15;27.95;;;23.52;;
17595;SDS011;8916;47.086;15.920;2022-10-16T13:49:46;27.38;;;23.50;;
17595;SDS011;8916;47.086;15.920;2022-10-16T13:52:31;31.60;;;24.98;;
17595;SDS011;8916;47.086;15.920;2022-10-16T13:55:00;29.05;;;25.13;;
17595;SDS011;8916;47.086;15.920;2022-10-16T13:57:31;31.50;;;24.55;;
17595;SDS011;8916;47.086;15.920;2022-10-16T14:00:00;29.80;;;24.33;;
17595;SDS011;8916;47.086;15.920;2022-10-16T14:02:31;29.27;;;24.73;;
17595;SDS011;8916;47.086;15.920;2022-10-16T14:05:08;30.23;;;23.95;;
17595;SDS011;8916;47.086;15.920;2022-10-16T14:07:40;32.75;;;24.15;;
17595;SDS011;8916;47.086;15.920;2022-10-16T14:10:18;29.25;;;23.92;;
17595;SDS011;8916;47.086;15.920;2022-10-16T14:12:57;32.60;;;24.27;;
17595;SDS011;8916;47.086;15.920;2022-10-16T14:15:29;28.95;;;23.13;;
17595;SDS011;8916;47.086;15.920;2022-10-16T14:18:05;33.17;;;22.83;;
17595;SDS011;8916;47.086;15.920;2022-10-16T14:20:34;29.08;;;22.73;;
17595;SDS011;8916;47.086;15.920;2022-10-16T14:23:17;25.42;;;22.45;;
17595;SDS011;8916;47.086;15.920;2022-10-16T14:26:05;25.65;;;22.80;;
17595;SDS011;8916;47.086;15.920;2022-10-16T14:28:43;28.00;;;22.20;;
17595;SDS011;8916;47.086;15.920;2022-10-16T14:31:26;28.30;;;22.15;;
17595;SDS011;8916;47.086;15.920;2022-10-16T14:34:04;34.40;;;22.77;;
17595;SDS011;8916;47.086;15.920;2022-10-16T14:36:54;31.20;;;23.83;;
17595;SDS011;8916;47.086;15.920;2022-10-16T14:39:24;28.80;;;23.05;;
17595;SDS011;8916;47.086;15.920;2022-10-16T14:41:55;26.17;;;22.30;;
17595;SDS011;8916;47.086;15.920;2022-10-16T14:44:31;29.83;;;23.38;;
17595;SDS011;8916;47.086;15.920;2022-10-16T14:47:08;28.35;;;23.52;;
17595;SDS011;8916;47.086;15.920;2022-10-16T14:49:41;31.38;;;24.08;;
17595;SDS011;8916;47.086;15.920;2022-10-16T14:52:11;27.40;;;23.63;;
17595;SDS011;8916;47.086;15.920;2022-10-16T14:54:43;27.58;;;22.67;;
17595;SDS011;8916;47.086;15.920;2022-10-16T14:57:17;29.17;;;24.17;;
17595;SDS011;8916;47.086;15.920;2022-10-16T14:59:49;26.90;;;22.98;;
17595;SDS011;8916;47.086;15.920;2022-10-16T15:02:22;28.60;;;24.60;;
17595;SDS011;8916;47.086;15.920;2022-10-16T15:04:57;34.88;;;24.70;;
17595;SDS011;8916;47.086;15.920;2022-10-16T15:07:30;35.53;;;26.33;;
17595;SDS011;8916;47.086;15.920;2022-10-16T15:09:59;29.75;;;26.50;;
17595;SDS011;8916;47.086;15.920;2022-10-16T15:12:28;30.08;;;26.25;;
17595;SDS011;8916;47.086;15.920;2022-10-16T15:14:59;34.10;;;27.30;;
17595;SDS011;8916;47.086;15.920;2022-10-16T15:17:28;34.67;;;27.40;;
17595;SDS011;8916;47.086;15.920;2022-10-16T15:19:57;36.17;;;27.77;;
17595;SDS011;8916;47.086;15.920;2022-10-16T15:22:27;36.95;;;29.15;;